createdAt,value
2019-05-28T00:00:18.723Z,7.80
2019-05-28T00:03:25.268Z,9.10
2019-05-28T00:06:32.960Z,8.35
2019-05-28T00:09:39.379Z,7.50
2019-05-28T00:12:45.960Z,5.53
2019-05-28T00:15:53.484Z,7.05
2019-05-28T00:19:02.039Z,7.42
2019-05-28T00:22:08.829Z,7.03
2019-05-28T00:25:17.284Z,7.78
2019-05-28T00:28:23.913Z,8.03
2019-05-28T00:31:30.386Z,6.67
2019-05-28T00:34:37.043Z,6.47
2019-05-28T00:37:43.506Z,6.20
2019-05-28T00:40:50.290Z,6.10
2019-05-28T00:43:56.800Z,7.00
2019-05-28T00:47:03.324Z,7.97
2019-05-28T00:50:10.787Z,8.75
2019-05-28T00:53:17.403Z,10.48
2019-05-28T00:56:25.422Z,9.05
2019-05-28T00:59:36.838Z,7.97
2019-05-28T01:02:43.372Z,7.00
2019-05-28T01:05:50.961Z,9.00
2019-05-28T01:08:57.845Z,10.15
2019-05-28T01:12:04.481Z,6.53
2019-05-28T01:15:11.596Z,7.90
2019-05-28T01:18:18.494Z,8.70
2019-05-28T01:21:25.076Z,8.03
2019-05-28T01:24:31.646Z,11.33
2019-05-28T01:27:40.845Z,9.55
2019-05-28T01:30:56.041Z,8.00
2019-05-28T01:33:55.504Z,7.85
2019-05-28T01:37:02.062Z,7.90
2019-05-28T01:40:10.023Z,8.55
2019-05-28T01:43:16.502Z,8.75
2019-05-28T01:46:23.067Z,8.48
2019-05-28T01:49:29.611Z,12.07
2019-05-28T01:52:38.740Z,8.60
2019-05-28T01:55:45.397Z,11.33
2019-05-28T01:58:51.837Z,11.80
2019-05-28T02:01:58.326Z,8.85
2019-05-28T02:05:06.637Z,11.10
2019-05-28T02:08:13.132Z,8.70
2019-05-28T02:11:19.553Z,11.85
2019-05-28T02:14:26.019Z,11.20
2019-05-28T02:17:32.862Z,11.85
2019-05-28T02:20:40.553Z,11.53
2019-05-28T02:23:47.094Z,11.25
2019-05-28T02:26:53.810Z,10.53
2019-05-28T02:30:00.251Z,12.25
2019-05-28T02:33:06.803Z,10.93
2019-05-28T02:36:15.226Z,11.63
2019-05-28T02:39:21.810Z,11.08
2019-05-28T02:42:28.389Z,10.05
2019-05-28T02:45:36.508Z,9.70
2019-05-28T02:48:43.148Z,10.90
2019-05-28T02:51:50.221Z,9.65
2019-05-28T02:54:57.193Z,9.08
2019-05-28T02:58:05.176Z,9.98
2019-05-28T03:01:11.696Z,12.43
2019-05-28T03:04:20.756Z,9.05
2019-05-28T03:07:29.758Z,8.78
2019-05-28T03:11:01.710Z,6.12
2019-05-28T03:13:47.217Z,7.60
2019-05-28T03:16:57.202Z,7.17
2019-05-28T03:20:04.834Z,7.83
2019-05-28T03:23:13.269Z,5.97
2019-05-28T03:26:19.806Z,6.15
2019-05-28T03:29:26.456Z,8.50
2019-05-28T03:32:34.673Z,5.12
2019-05-28T03:35:43.589Z,5.10
2019-05-28T03:38:52.236Z,5.90
2019-05-28T03:41:58.724Z,7.90
2019-05-28T03:45:05.476Z,6.37
2019-05-28T03:48:11.967Z,5.40
2019-05-28T03:51:18.430Z,6.25
2019-05-28T03:54:24.879Z,6.40
2019-05-28T03:57:31.395Z,7.42
2019-05-28T04:00:37.861Z,8.28
2019-05-28T04:03:44.313Z,7.72
2019-05-28T04:06:50.816Z,9.13
2019-05-28T04:09:57.487Z,9.30
2019-05-28T04:13:05.302Z,10.35
2019-05-28T04:16:11.771Z,9.68
2019-05-28T04:19:18.379Z,8.08
2019-05-28T04:22:24.832Z,12.15
2019-05-28T04:25:31.455Z,8.03
2019-05-28T04:28:38.351Z,11.25
2019-05-28T04:31:44.795Z,12.03
2019-05-28T04:34:51.470Z,11.20
2019-05-28T04:37:57.911Z,10.55
2019-05-28T04:41:04.697Z,13.43
2019-05-28T04:44:11.267Z,15.65
2019-05-28T04:47:17.910Z,14.00
2019-05-28T04:50:24.601Z,14.47
2019-05-28T04:53:31.144Z,11.50
2019-05-28T04:56:37.796Z,14.15
2019-05-28T04:59:44.236Z,13.83
2019-05-28T05:02:59.676Z,11.28
2019-05-28T05:05:59.147Z,13.20
2019-05-28T05:09:07.871Z,13.20
2019-05-28T05:12:14.630Z,15.98
2019-05-28T05:15:21.117Z,14.93
2019-05-28T05:18:27.655Z,12.93
2019-05-28T05:21:35.691Z,16.17
2019-05-28T05:24:42.620Z,13.40
2019-05-28T05:27:49.564Z,13.70
2019-05-28T05:30:56.057Z,13.18
2019-05-28T05:34:02.486Z,10.58
2019-05-28T05:37:09.335Z,11.65
2019-05-28T05:40:16.215Z,13.80
2019-05-28T05:43:22.821Z,11.95
2019-05-28T05:46:29.285Z,14.80
2019-05-28T05:49:36.211Z,12.23
2019-05-28T05:52:42.716Z,14.63
2019-05-28T05:55:49.187Z,13.75
2019-05-28T05:58:55.729Z,16.10
2019-05-28T06:02:02.315Z,15.55
2019-05-28T06:05:08.930Z,11.10
2019-05-28T06:08:15.471Z,14.80
2019-05-28T06:11:21.950Z,15.43
2019-05-28T06:14:28.403Z,14.18
2019-05-28T06:17:35.298Z,16.05
2019-05-28T06:20:41.854Z,15.18
2019-05-28T06:23:48.359Z,16.90
2019-05-28T06:26:54.814Z,16.70
2019-05-28T06:30:01.622Z,13.98
2019-05-28T06:33:08.183Z,14.53
2019-05-28T06:36:14.731Z,13.58
2019-05-28T06:39:22.129Z,14.03
2019-05-28T06:42:28.661Z,16.45
2019-05-28T06:45:37.694Z,15.98
2019-05-28T06:48:44.196Z,12.88
2019-05-28T06:51:50.790Z,13.60
2019-05-28T06:54:57.343Z,7.60
2019-05-28T06:58:03.979Z,12.33
2019-05-28T07:01:10.685Z,8.90
2019-05-28T07:04:31.820Z,8.83
2019-05-28T07:07:26.517Z,13.55
2019-05-28T07:10:33.449Z,11.25
2019-05-28T07:13:39.898Z,11.05
2019-05-28T07:16:53.174Z,10.35
2019-05-28T07:19:54.878Z,8.45
2019-05-28T07:23:01.360Z,9.00
2019-05-28T07:26:07.896Z,7.60
2019-05-28T07:29:14.377Z,11.00
2019-05-28T07:32:22.070Z,8.18
2019-05-28T07:35:44.681Z,8.23
2019-05-28T07:38:39.548Z,10.00
2019-05-28T07:41:45.991Z,9.05
2019-05-28T07:44:52.450Z,7.58
2019-05-28T07:47:59.111Z,9.58
2019-05-28T07:51:06.090Z,9.13
2019-05-28T07:54:12.589Z,8.40
2019-05-28T07:57:19.194Z,10.28
2019-05-28T08:00:38.849Z,9.88
2019-05-28T08:03:45.370Z,8.40
2019-05-28T08:06:55.082Z,8.98
2019-05-28T08:10:00.273Z,9.00
2019-05-28T08:13:07.062Z,7.70
2019-05-28T08:16:18.345Z,9.65
2019-05-28T08:19:22.090Z,8.00
2019-05-28T08:22:41.659Z,7.53
2019-05-28T08:25:47.037Z,8.08
2019-05-28T08:28:45.434Z,7.28
2019-05-28T08:31:51.978Z,8.55
2019-05-28T08:35:05.589Z,8.10
2019-05-28T08:38:07.011Z,7.42
2019-05-28T08:41:13.713Z,8.90
2019-05-28T08:44:20.135Z,7.95
2019-05-28T08:47:26.774Z,8.53
2019-05-28T08:50:35.175Z,8.28
2019-05-28T08:53:41.649Z,8.08
2019-05-28T08:56:48.341Z,8.95
2019-05-28T08:59:54.771Z,7.37
2019-05-28T09:03:05.050Z,6.67
2019-05-28T09:06:09.605Z,6.85
2019-05-28T09:09:16.169Z,6.83
2019-05-28T09:12:22.611Z,8.25
2019-05-28T09:15:29.250Z,7.92
2019-05-28T09:18:36.901Z,8.85
2019-05-28T09:21:43.402Z,5.90
2019-05-28T09:24:49.905Z,6.00
2019-05-28T09:27:56.576Z,7.37
2019-05-28T09:31:03.161Z,8.40
2019-05-28T09:34:09.673Z,6.85
2019-05-28T09:37:16.360Z,6.47
2019-05-28T09:40:23.208Z,5.78
2019-05-28T09:43:29.756Z,9.15
2019-05-28T09:46:36.608Z,9.08
2019-05-28T09:49:43.187Z,8.20
2019-05-28T09:52:55.059Z,8.00
2019-05-28T09:55:58.065Z,6.60
2019-05-28T09:59:05.588Z,9.78
2019-05-28T10:02:12.292Z,6.80
2019-05-28T10:05:21.255Z,7.25
2019-05-28T10:08:27.912Z,7.12
2019-05-28T10:11:34.969Z,9.75
2019-05-28T10:14:44.268Z,7.83
2019-05-28T10:17:49.875Z,9.15
2019-05-28T10:20:56.579Z,9.85
2019-05-28T10:24:03.038Z,9.45
2019-05-28T10:27:09.617Z,9.10
2019-05-28T10:30:17.019Z,9.33
2019-05-28T10:33:23.597Z,9.68
2019-05-28T10:36:36.029Z,7.70
2019-05-28T10:39:39.419Z,7.17
2019-05-28T10:42:46.981Z,7.75
2019-05-28T10:45:53.600Z,8.93
2019-05-28T10:49:00.403Z,6.42
2019-05-28T10:52:07.153Z,9.25
2019-05-28T10:55:15.995Z,8.23
2019-05-28T10:58:22.289Z,7.65
2019-05-28T11:01:29.000Z,9.30
2019-05-28T11:04:38.164Z,8.30
2019-05-28T11:07:44.685Z,8.18
2019-05-28T11:10:51.355Z,9.88
2019-05-28T11:13:57.898Z,7.85
2019-05-28T11:17:05.579Z,6.35
2019-05-28T11:20:13.325Z,6.65
2019-05-28T11:23:20.518Z,6.70
2019-05-28T11:26:27.064Z,6.75
2019-05-28T11:29:34.110Z,7.47
2019-05-28T11:32:40.872Z,6.00
2019-05-28T11:35:47.574Z,6.08
2019-05-28T11:38:54.018Z,8.25
2019-05-28T11:42:00.881Z,8.00
2019-05-28T11:45:09.946Z,7.35
2019-05-28T11:48:16.706Z,8.38
2019-05-28T11:51:23.202Z,7.80
2019-05-28T11:54:29.689Z,8.23
2019-05-28T11:57:36.493Z,8.35
2019-05-28T12:00:43.168Z,6.85
2019-05-28T12:03:49.641Z,8.80
2019-05-28T12:06:56.143Z,7.70
2019-05-28T12:10:02.933Z,7.12
2019-05-28T12:13:11.037Z,7.67
2019-05-28T12:16:17.646Z,8.50
2019-05-28T12:19:24.079Z,7.97
2019-05-28T12:22:30.525Z,7.80
2019-05-28T12:25:37.136Z,9.30
2019-05-28T12:28:43.548Z,8.30
2019-05-28T12:31:50.087Z,11.18
2019-05-28T12:34:56.563Z,7.78
2019-05-28T12:38:03.022Z,9.95
2019-05-28T12:41:09.521Z,8.23
2019-05-28T12:44:17.522Z,9.20
2019-05-28T12:47:24.300Z,7.50
2019-05-28T12:50:30.844Z,6.80
2019-05-28T12:53:50.385Z,8.35
2019-05-28T12:56:46.972Z,9.70
2019-05-28T12:59:53.419Z,6.95
2019-05-28T13:03:00.209Z,6.53
2019-05-28T13:06:06.902Z,7.65
2019-05-28T13:09:13.354Z,6.70
2019-05-28T13:12:19.771Z,7.12
2019-05-28T13:15:27.223Z,7.53
2019-05-28T13:18:34.274Z,7.72
2019-05-28T13:21:40.751Z,8.45
2019-05-28T13:24:47.321Z,8.08
2019-05-28T13:27:53.739Z,7.03
2019-05-28T13:31:00.313Z,6.78
2019-05-28T13:34:07.060Z,10.95
2019-05-28T13:37:13.586Z,8.15
2019-05-28T13:40:21.737Z,7.70
2019-05-28T13:43:28.110Z,9.05
2019-05-28T13:46:37.455Z,7.87
2019-05-28T13:49:44.930Z,9.73
2019-05-28T13:52:51.425Z,9.30
2019-05-28T13:55:57.886Z,6.62
2019-05-28T13:59:04.511Z,8.48
2019-05-28T14:02:10.996Z,6.72
2019-05-28T14:05:18.491Z,9.98
2019-05-28T14:08:25.035Z,7.90
2019-05-28T14:11:31.469Z,8.60
2019-05-28T14:14:40.565Z,12.18
2019-05-28T14:17:47.177Z,12.60
2019-05-28T14:20:53.634Z,16.85
2019-05-28T14:24:01.045Z,16.00
2019-05-28T14:27:07.517Z,13.50
2019-05-28T14:30:14.816Z,16.30
2019-05-28T14:33:21.542Z,15.85
2019-05-28T14:36:28.947Z,16.95
2019-05-28T14:39:41.343Z,18.05
2019-05-28T14:42:46.852Z,16.30
2019-05-28T14:45:53.443Z,14.35
2019-05-28T14:49:02.307Z,16.17
2019-05-28T14:52:08.719Z,17.35
2019-05-28T14:55:15.460Z,18.20
2019-05-28T14:58:21.875Z,17.35
2019-05-28T15:01:28.447Z,15.95
2019-05-28T15:04:35.216Z,18.15
2019-05-28T15:07:41.789Z,17.17
2019-05-28T15:10:48.294Z,19.00
2019-05-28T15:13:54.864Z,14.78
2019-05-28T15:17:01.324Z,15.53
2019-05-28T15:20:08.877Z,17.32
2019-05-28T15:23:15.419Z,17.23
2019-05-28T15:26:22.046Z,15.30
2019-05-28T15:29:28.629Z,16.77
2019-05-28T15:32:37.983Z,14.20
2019-05-28T15:35:46.954Z,14.75
2019-05-28T15:38:53.452Z,13.95
2019-05-28T15:41:59.949Z,14.55
2019-05-28T15:45:07.700Z,12.58
2019-05-28T15:48:14.160Z,17.60
2019-05-28T15:51:21.937Z,15.15
2019-05-28T15:54:30.020Z,14.15
2019-05-28T15:57:36.679Z,16.48
2019-05-28T16:00:43.360Z,15.18
2019-05-28T16:03:50.094Z,13.25
2019-05-28T16:06:56.777Z,15.65
2019-05-28T16:10:03.391Z,13.60
2019-05-28T16:13:09.841Z,13.13
2019-05-28T16:16:16.360Z,13.22
2019-05-28T16:19:22.823Z,13.43
2019-05-28T16:22:29.518Z,14.20
2019-05-28T16:25:41.575Z,15.23
2019-05-28T16:28:47.500Z,13.78
2019-05-28T16:31:54.008Z,13.60
2019-05-28T16:35:00.507Z,10.65
2019-05-28T16:38:06.986Z,10.90
2019-05-28T16:41:13.586Z,14.90
2019-05-28T16:44:20.001Z,12.13
2019-05-28T16:47:26.488Z,12.55
2019-05-28T16:50:34.724Z,11.70
2019-05-28T16:53:41.313Z,17.50
2019-05-28T16:56:47.765Z,15.10
2019-05-28T16:59:54.194Z,11.08
2019-05-28T17:03:00.711Z,13.90
2019-05-28T17:06:07.299Z,13.22
2019-05-28T17:09:13.734Z,11.95
2019-05-28T17:12:20.165Z,11.83
2019-05-28T17:15:26.594Z,11.22
2019-05-28T17:18:33.172Z,10.10
2019-05-28T17:21:39.592Z,10.30
2019-05-28T17:24:46.101Z,11.00
2019-05-28T17:27:52.583Z,12.85
2019-05-28T17:30:59.058Z,13.35
2019-05-28T17:34:05.813Z,9.38
2019-05-28T17:37:12.583Z,8.43
2019-05-28T17:40:23.045Z,10.58
2019-05-28T17:43:28.377Z,11.93
2019-05-28T17:46:37.665Z,11.35
2019-05-28T17:49:44.475Z,13.45
2019-05-28T17:52:51.874Z,12.47
2019-05-28T17:55:59.543Z,13.53
2019-05-28T17:59:06.186Z,9.98
2019-05-28T18:02:12.689Z,11.10
2019-05-28T18:05:19.311Z,8.15
2019-05-28T18:08:29.216Z,6.53
2019-05-28T18:11:37.028Z,5.62
2019-05-28T18:14:43.456Z,7.45
2019-05-28T18:17:50.016Z,8.83
2019-05-28T18:20:56.599Z,8.03
2019-05-28T18:24:03.173Z,7.42
2019-05-28T18:27:09.658Z,9.58
2019-05-28T18:30:16.938Z,9.48
2019-05-28T18:38:03.174Z,11.12
2019-05-28T18:41:20.644Z,12.40
2019-05-28T18:44:13.211Z,9.33
2019-05-28T18:47:19.724Z,11.05
2019-05-28T18:50:26.206Z,10.48
2019-05-28T18:53:35.750Z,9.25
2019-05-28T18:56:42.487Z,10.78
2019-05-28T18:59:48.919Z,12.23
2019-05-28T19:02:55.361Z,12.85
2019-05-28T19:06:01.792Z,10.65
2019-05-28T19:09:11.471Z,10.20
2019-05-28T19:12:18.365Z,11.70
2019-05-28T19:15:24.883Z,8.83
2019-05-28T19:18:31.332Z,13.20
2019-05-28T19:21:37.815Z,11.85
2019-05-28T19:24:44.239Z,13.83
2019-05-28T19:27:50.669Z,12.73
2019-05-28T19:30:57.406Z,12.45
2019-05-28T19:34:04.041Z,13.50
2019-05-28T19:37:11.209Z,12.07
2019-05-28T19:40:26.328Z,13.40
2019-05-28T19:43:34.139Z,12.90
2019-05-28T19:46:40.675Z,12.37
2019-05-28T19:49:47.074Z,12.43
2019-05-28T19:52:56.817Z,10.35
2019-05-28T19:56:02.803Z,12.82
2019-05-28T19:59:09.444Z,11.65
2019-05-28T20:02:15.945Z,11.25
2019-05-28T20:05:22.841Z,12.33
2019-05-28T20:08:29.320Z,11.10
2019-05-28T20:11:38.587Z,10.90
2019-05-28T20:14:45.037Z,10.68
2019-05-28T20:17:52.473Z,10.03
2019-05-28T20:20:59.055Z,10.13
2019-05-28T20:24:06.054Z,11.93
2019-05-28T20:27:12.638Z,9.70
2019-05-28T20:30:22.294Z,14.28
2019-05-28T20:33:28.746Z,10.15
2019-05-28T20:36:35.617Z,9.65
2019-05-28T20:39:42.166Z,7.90
2019-05-28T20:42:48.746Z,9.78
2019-05-28T20:45:55.275Z,9.10
2019-05-28T20:49:02.624Z,9.65
2019-05-28T20:52:09.375Z,10.80
2019-05-28T20:55:18.299Z,12.43
2019-05-28T20:58:39.298Z,12.10
2019-05-28T21:01:36.789Z,10.23
2019-05-28T21:04:43.368Z,9.35
2019-05-28T21:07:50.358Z,11.48
2019-05-28T21:10:56.915Z,10.80
2019-05-28T21:14:03.350Z,9.58
2019-05-28T21:17:09.975Z,7.83
2019-05-28T21:20:17.207Z,7.42
2019-05-28T21:23:23.649Z,8.35
2019-05-28T21:26:30.087Z,10.13
2019-05-28T21:29:36.632Z,6.90
2019-05-28T21:32:43.271Z,8.63
2019-05-28T21:35:50.779Z,6.87
2019-05-28T21:38:57.773Z,8.28
2019-05-28T21:42:04.225Z,9.00
2019-05-28T21:45:12.720Z,8.10
2019-05-28T21:48:19.293Z,7.33
2019-05-28T21:51:26.936Z,7.35
2019-05-28T21:54:35.109Z,8.00
2019-05-28T21:57:44.660Z,7.85
2019-05-28T22:01:04.104Z,8.95
2019-05-28T22:04:10.977Z,9.83
2019-05-28T22:07:17.543Z,6.05
2019-05-28T22:10:24.179Z,6.05
2019-05-28T22:13:30.727Z,7.00
2019-05-28T22:16:39.136Z,7.75
2019-05-28T22:19:45.665Z,8.28
2019-05-28T22:22:52.105Z,6.42
2019-05-28T22:25:58.577Z,7.40
2019-05-28T22:29:05.180Z,8.28
2019-05-28T22:32:11.699Z,8.45
2019-05-28T22:35:20.107Z,8.85
2019-05-28T22:38:26.585Z,8.30
2019-05-28T22:41:33.501Z,7.95
2019-05-28T22:44:41.079Z,8.73
2019-05-28T22:47:47.570Z,7.83
2019-05-28T22:50:53.987Z,9.75
2019-05-28T22:54:01.879Z,8.63
2019-05-28T22:57:08.585Z,9.58
2019-05-28T23:00:15.382Z,9.88
2019-05-28T23:03:21.893Z,9.00
2019-05-28T23:06:29.488Z,9.05
2019-05-28T23:09:37.056Z,9.33
2019-05-28T23:12:43.475Z,9.48
2019-05-28T23:15:49.860Z,8.98
2019-05-28T23:18:56.309Z,9.53
2019-05-28T23:22:03.022Z,9.98
2019-05-28T23:25:11.682Z,11.93
2019-05-28T23:28:18.439Z,10.65
2019-05-28T23:31:24.877Z,11.22
2019-05-28T23:34:31.355Z,13.38
2019-05-28T23:37:39.275Z,12.28
2019-05-28T23:40:45.701Z,10.95
2019-05-28T23:44:01.471Z,13.70
2019-05-28T23:47:00.791Z,12.65
2019-05-28T23:50:08.482Z,13.83
2019-05-28T23:53:16.304Z,13.38
2019-05-28T23:56:22.982Z,11.63
2019-05-28T23:59:29.506Z,14.28
